createdAt,value
2022-09-27T00:01:05.597Z,14.41
2022-09-27T00:03:32.402Z,14.32
2022-09-27T00:06:04.269Z,14.27
2022-09-27T00:08:31.282Z,14.20
2022-09-27T00:11:01.927Z,14.12
2022-09-27T00:13:29.127Z,14.04
2022-09-27T00:15:59.748Z,13.86
2022-09-27T00:18:26.860Z,13.86
2022-09-27T00:20:53.981Z,13.78
2022-09-27T00:23:20.560Z,13.68
2022-09-27T00:25:57.216Z,13.69
2022-09-27T00:28:24.120Z,13.70
2022-09-27T00:30:50.794Z,13.61
2022-09-27T00:33:17.729Z,13.56
2022-09-27T00:35:44.437Z,13.51
2022-09-27T00:38:11.722Z,13.48
2022-09-27T00:40:38.761Z,13.37
2022-09-27T00:43:31.712Z,13.33
2022-09-27T00:46:03.350Z,13.30
2022-09-27T00:48:31.732Z,13.29
2022-09-27T00:51:00.548Z,13.30
2022-09-27T00:53:46.580Z,13.31
2022-09-27T00:56:16.315Z,13.27
2022-09-27T00:58:46.192Z,13.28
2022-09-27T01:01:14.239Z,13.23
2022-09-27T01:03:46.712Z,13.16
2022-09-27T01:06:14.665Z,13.18
2022-09-27T01:08:41.640Z,13.21
2022-09-27T01:11:08.294Z,13.23
2022-09-27T01:13:53.166Z,13.22
2022-09-27T01:16:28.503Z,13.22
2022-09-27T01:19:01.171Z,13.17
2022-09-27T01:21:36.266Z,13.16
2022-09-27T01:24:38.133Z,13.19
2022-09-27T01:27:31.125Z,13.20
2022-09-27T01:30:16.355Z,13.26
2022-09-27T01:32:47.356Z,13.21
2022-09-27T01:35:21.928Z,13.23
2022-09-27T01:38:23.332Z,13.20
2022-09-27T01:40:50.895Z,13.19
2022-09-27T01:43:40.723Z,13.17
2022-09-27T01:46:17.942Z,13.18
2022-09-27T01:49:05.903Z,13.19
2022-09-27T01:51:37.560Z,13.09
2022-09-27T01:54:05.759Z,12.94
2022-09-27T01:56:54.715Z,12.88
2022-09-27T01:59:29.733Z,12.83
2022-09-27T02:02:16.634Z,12.79
2022-09-27T02:05:22.536Z,12.69
2022-09-27T02:07:57.593Z,12.62
2022-09-27T02:10:26.195Z,12.57
2022-09-27T02:13:16.954Z,12.57
2022-09-27T02:15:49.893Z,12.52
2022-09-27T02:18:46.792Z,12.50
2022-09-27T02:21:14.951Z,12.48
2022-09-27T02:23:44.611Z,12.45
2022-09-27T02:26:19.019Z,12.41
2022-09-27T02:29:10.558Z,12.44
2022-09-27T02:31:45.230Z,12.52
2022-09-27T02:34:25.653Z,12.45
2022-09-27T02:36:53.616Z,12.49
2022-09-27T02:39:21.386Z,12.52
2022-09-27T02:41:58.443Z,12.60
2022-09-27T02:44:25.890Z,12.57
2022-09-27T02:47:01.699Z,12.52
2022-09-27T02:49:32.365Z,12.54
2022-09-27T02:52:14.225Z,12.57
2022-09-27T02:54:59.815Z,12.54
2022-09-27T02:57:46.072Z,12.66
2022-09-27T03:01:02.252Z,12.71
2022-09-27T03:04:04.344Z,12.62
2022-09-27T03:06:32.183Z,12.65
2022-09-27T03:08:58.868Z,12.75
2022-09-27T03:11:25.597Z,12.71
2022-09-27T03:14:07.969Z,12.76
2022-09-27T03:16:40.494Z,12.78
2022-09-27T03:19:17.087Z,12.81
2022-09-27T03:22:02.524Z,12.84
2022-09-27T03:24:29.270Z,12.86
2022-09-27T03:26:56.042Z,12.91
2022-09-27T03:29:22.599Z,13.00
2022-09-27T03:31:56.407Z,12.99
2022-09-27T03:34:43.190Z,13.09
2022-09-27T03:37:10.061Z,13.06
2022-09-27T03:39:36.701Z,13.07
2022-09-27T03:42:03.383Z,12.98
2022-09-27T03:44:30.164Z,13.00
2022-09-27T03:46:57.428Z,12.99
2022-09-27T03:49:24.072Z,12.98
2022-09-27T03:51:50.777Z,13.00
2022-09-27T03:54:17.389Z,13.06
2022-09-27T03:56:43.966Z,13.09
2022-09-27T03:59:11.909Z,13.02
2022-09-27T04:01:58.402Z,13.02
2022-09-27T04:04:45.183Z,13.01
2022-09-27T04:07:11.875Z,13.07
2022-09-27T04:09:42.495Z,13.02
2022-09-27T04:12:11.744Z,12.93
2022-09-27T04:14:38.464Z,12.86
2022-09-27T04:17:43.118Z,12.82
2022-09-27T04:20:28.452Z,12.81
2022-09-27T04:22:56.844Z,12.65
2022-09-27T04:25:23.535Z,12.72
2022-09-27T04:27:55.357Z,12.82
2022-09-27T04:30:22.872Z,12.83
2022-09-27T04:33:12.803Z,12.68
2022-09-27T04:36:07.178Z,12.64
2022-09-27T04:38:38.715Z,12.77
2022-09-27T04:41:07.816Z,12.66
2022-09-27T04:43:38.835Z,12.66
2022-09-27T04:46:06.419Z,12.73
2022-09-27T04:48:33.254Z,12.84
2022-09-27T04:51:02.306Z,12.86
2022-09-27T04:53:32.230Z,12.85
2022-09-27T04:55:59.634Z,12.76
2022-09-27T04:58:26.244Z,12.71
2022-09-27T05:00:53.373Z,12.71
2022-09-27T05:03:39.127Z,12.70
2022-09-27T05:06:11.823Z,12.72
2022-09-27T05:08:38.753Z,12.76
2022-09-27T05:11:28.177Z,12.77
2022-09-27T05:14:21.289Z,12.74
2022-09-27T05:17:07.965Z,12.81
2022-09-27T05:19:48.466Z,12.82
2022-09-27T05:22:30.878Z,12.90
2022-09-27T05:24:57.828Z,12.99
2022-09-27T05:27:35.275Z,13.06
2022-09-27T05:30:02.003Z,13.15
2022-09-27T05:32:46.719Z,13.21
2022-09-27T05:35:34.383Z,13.01
2022-09-27T05:38:01.355Z,12.93
2022-09-27T05:40:46.291Z,12.93
2022-09-27T05:43:13.361Z,12.72
2022-09-27T05:45:40.116Z,12.73
2022-09-27T05:48:07.586Z,12.86
2022-09-27T05:50:46.970Z,12.79
2022-09-27T05:53:13.827Z,12.66
2022-09-27T05:55:41.575Z,12.72
2022-09-27T05:58:08.826Z,12.72
2022-09-27T06:00:41.855Z,12.90
2022-09-27T06:03:29.878Z,12.88
2022-09-27T06:06:10.704Z,12.90
2022-09-27T06:08:45.645Z,12.90
2022-09-27T06:11:15.816Z,12.89
2022-09-27T06:13:43.937Z,12.91
2022-09-27T06:16:12.298Z,12.86
2022-09-27T06:18:42.477Z,12.89
2022-09-27T06:21:09.999Z,12.85
2022-09-27T06:23:38.701Z,12.88
2022-09-27T06:26:14.185Z,12.89
2022-09-27T06:28:51.471Z,12.89
2022-09-27T06:31:18.343Z,12.92
2022-09-27T06:33:53.000Z,13.10
2022-09-27T06:36:20.179Z,13.08
2022-09-27T06:38:48.282Z,13.02
2022-09-27T06:41:21.353Z,12.97
2022-09-27T06:44:06.233Z,13.03
2022-09-27T06:46:53.004Z,13.06
2022-09-27T06:49:25.583Z,13.04
2022-09-27T06:51:53.330Z,13.08
2022-09-27T06:54:22.753Z,13.05
2022-09-27T06:56:49.414Z,13.03
2022-09-27T06:59:35.416Z,13.07
2022-09-27T07:02:20.770Z,13.17
2022-09-27T07:05:10.578Z,13.32
2022-09-27T07:07:47.954Z,13.21
2022-09-27T07:10:14.861Z,13.15
2022-09-27T07:12:42.719Z,13.07
2022-09-27T07:15:10.301Z,13.05
2022-09-27T07:17:39.577Z,13.11
2022-09-27T07:20:06.440Z,13.19
2022-09-27T07:22:33.131Z,13.27
2022-09-27T07:25:03.170Z,13.34
2022-09-27T07:27:31.349Z,13.44
2022-09-27T07:29:57.952Z,13.50
2022-09-27T07:32:25.343Z,13.56
2022-09-27T07:34:52.921Z,13.55
2022-09-27T07:37:20.979Z,13.49
2022-09-27T07:39:47.591Z,13.46
2022-09-27T07:42:14.302Z,13.46
2022-09-27T07:44:45.351Z,13.35
2022-09-27T07:47:34.690Z,13.40
2022-09-27T07:50:07.251Z,13.41
2022-09-27T07:52:51.278Z,13.32
2022-09-27T07:55:40.840Z,13.19
2022-09-27T07:58:18.014Z,13.20
2022-09-27T08:00:45.196Z,13.25
2022-09-27T08:03:15.254Z,13.27
2022-09-27T08:05:42.544Z,13.34
2022-09-27T08:08:09.361Z,13.37
2022-09-27T08:10:36.585Z,13.43
2022-09-27T08:13:04.543Z,13.46
2022-09-27T08:15:31.763Z,13.53
2022-09-27T08:17:58.817Z,13.57
2022-09-27T08:20:45.669Z,13.62
2022-09-27T08:23:27.023Z,13.62
2022-09-27T08:26:16.502Z,13.69
2022-09-27T08:29:16.142Z,13.80
2022-09-27T08:31:53.940Z,13.80
2022-09-27T08:34:21.829Z,13.79
2022-09-27T08:36:48.562Z,13.83
2022-09-27T08:39:15.414Z,13.93
2022-09-27T08:42:05.471Z,13.96
2022-09-27T08:44:35.204Z,13.99
2022-09-27T08:47:17.675Z,13.99
2022-09-27T08:50:08.807Z,13.98
2022-09-27T08:52:41.382Z,13.99
2022-09-27T08:55:23.157Z,14.01
2022-09-27T08:57:53.767Z,13.99
2022-09-27T09:00:20.729Z,13.95
2022-09-27T09:02:49.149Z,13.95
2022-09-27T09:05:33.593Z,13.97
2022-09-27T09:08:16.070Z,13.93
2022-09-27T09:11:10.757Z,13.91
2022-09-27T09:14:12.789Z,13.95
2022-09-27T09:17:00.628Z,13.97
2022-09-27T09:19:34.811Z,14.01
2022-09-27T09:22:26.077Z,14.16
2022-09-27T09:25:25.249Z,14.26
2022-09-27T09:27:51.862Z,14.34
2022-09-27T09:30:20.306Z,14.41
2022-09-27T09:32:57.329Z,14.51
2022-09-27T09:35:24.311Z,14.61
2022-09-27T09:37:58.559Z,14.67
2022-09-27T09:40:28.404Z,14.73
2022-09-27T09:43:13.872Z,14.75
2022-09-27T09:45:43.095Z,14.80
2022-09-27T09:48:10.892Z,14.87
2022-09-27T09:50:43.827Z,14.93
2022-09-27T09:53:19.483Z,14.97
2022-09-27T09:55:53.572Z,14.91
2022-09-27T09:58:29.204Z,14.88
2022-09-27T10:01:15.564Z,14.92
2022-09-27T10:03:42.574Z,14.97
2022-09-27T10:06:11.292Z,14.95
2022-09-27T10:08:38.106Z,14.53
2022-09-27T10:11:26.859Z,13.99
2022-09-27T10:14:10.738Z,13.59
2022-09-27T10:16:37.899Z,13.22
2022-09-27T10:19:05.744Z,13.19
2022-09-27T10:21:33.738Z,13.09
2022-09-27T10:24:04.644Z,13.29
2022-09-27T10:26:52.014Z,13.15
2022-09-27T10:29:23.519Z,13.23
2022-09-27T10:31:50.644Z,13.36
2022-09-27T10:34:24.453Z,13.61
2022-09-27T10:37:06.792Z,13.65
2022-09-27T10:39:37.073Z,13.71
2022-09-27T10:42:23.316Z,13.69
2022-09-27T10:44:50.539Z,13.83
2022-09-27T10:47:27.532Z,13.96
2022-09-27T10:50:38.645Z,14.10
2022-09-27T10:53:14.451Z,14.10
2022-09-27T10:55:43.013Z,14.23
2022-09-27T10:58:18.388Z,14.27
2022-09-27T11:00:54.111Z,14.36
2022-09-27T11:03:21.170Z,14.51
2022-09-27T11:05:47.848Z,14.72
2022-09-27T11:08:24.153Z,14.68
2022-09-27T11:11:01.611Z,14.69
2022-09-27T11:13:32.861Z,14.91
2022-09-27T11:16:02.583Z,15.19
2022-09-27T11:18:41.647Z,15.32
2022-09-27T11:21:27.289Z,15.52
2022-09-27T11:24:17.011Z,15.65
2022-09-27T11:27:10.334Z,15.64
2022-09-27T11:29:40.184Z,15.73
2022-09-27T11:32:39.115Z,16.05
2022-09-27T11:35:20.392Z,15.92
2022-09-27T11:37:47.172Z,15.95
2022-09-27T11:40:17.993Z,16.07
2022-09-27T11:43:04.355Z,15.99
2022-09-27T11:48:52.873Z,15.78
2022-09-27T11:51:19.679Z,15.74
2022-09-27T11:53:52.286Z,15.88
2022-09-27T11:56:26.862Z,16.10
2022-09-27T11:59:09.510Z,16.21
2022-09-27T12:01:42.724Z,16.38
2022-09-27T12:04:09.595Z,16.37
2022-09-27T12:06:36.562Z,16.28
2022-09-27T12:09:03.195Z,16.11
2022-09-27T12:11:36.929Z,16.04
2022-09-27T12:14:06.573Z,15.97
2022-09-27T12:16:34.452Z,15.96
2022-09-27T12:19:02.115Z,15.97
2022-09-27T12:21:50.176Z,16.00
2022-09-27T12:24:21.555Z,16.07
2022-09-27T12:27:21.771Z,16.17
2022-09-27T12:29:48.872Z,16.21
2022-09-27T12:32:25.358Z,16.26
2022-09-27T12:34:55.747Z,16.41
2022-09-27T12:37:33.942Z,16.49
2022-09-27T12:40:16.856Z,16.44
2022-09-27T12:42:47.741Z,16.30
2022-09-27T12:45:50.434Z,16.12
2022-09-27T12:48:29.337Z,16.13
2022-09-27T12:51:00.879Z,16.20
2022-09-27T12:53:41.393Z,16.17
2022-09-27T12:56:15.086Z,16.21
2022-09-27T12:58:41.773Z,16.08
2022-09-27T13:01:19.236Z,16.09
2022-09-27T13:03:58.493Z,15.99
2022-09-27T13:06:25.238Z,15.97
2022-09-27T13:08:56.103Z,15.95
2022-09-27T13:11:32.137Z,15.95
2022-09-27T13:14:00.010Z,15.94
2022-09-27T13:16:28.073Z,15.97
2022-09-27T13:19:01.810Z,16.01
2022-09-27T13:21:48.851Z,16.09
2022-09-27T13:24:38.893Z,15.92
2022-09-27T13:27:27.406Z,15.95
2022-09-27T13:30:12.165Z,16.01
2022-09-27T13:33:02.559Z,16.01
2022-09-27T13:35:37.429Z,16.05
2022-09-27T13:38:22.381Z,16.14
2022-09-27T13:40:50.021Z,16.23
2022-09-27T13:43:48.869Z,16.28
2022-09-27T13:46:24.891Z,16.27
2022-09-27T13:49:05.092Z,16.25
2022-09-27T13:51:51.613Z,16.25
2022-09-27T13:54:36.346Z,16.20
2022-09-27T13:57:06.605Z,16.20
2022-09-27T13:59:43.674Z,16.19
2022-09-27T14:02:31.663Z,16.23
2022-09-27T14:05:01.244Z,16.27
2022-09-27T14:07:36.900Z,16.30
2022-09-27T14:10:04.839Z,16.34
2022-09-27T14:12:37.390Z,16.40
2022-09-27T14:15:08.787Z,16.36
2022-09-27T14:17:35.488Z,16.29
2022-09-27T14:20:03.960Z,16.28
2022-09-27T14:22:31.062Z,16.29
2022-09-27T14:25:17.851Z,16.26
2022-09-27T14:27:47.265Z,16.23
2022-09-27T14:30:49.564Z,16.29
2022-09-27T14:33:45.929Z,16.34
2022-09-27T14:36:43.750Z,16.39
2022-09-27T14:39:20.368Z,16.34
2022-09-27T14:41:50.053Z,16.28
2022-09-27T14:44:18.693Z,16.20
2022-09-27T14:46:46.441Z,16.12
2022-09-27T14:49:20.232Z,16.08
2022-09-27T14:51:53.776Z,16.05
2022-09-27T14:54:25.395Z,16.06
2022-09-27T14:56:53.553Z,16.01
2022-09-27T14:59:27.326Z,15.97
2022-09-27T15:01:54.086Z,15.92
2022-09-27T15:04:22.145Z,15.91
2022-09-27T15:06:49.797Z,15.94
2022-09-27T15:09:18.867Z,15.94
2022-09-27T15:11:55.093Z,15.90
2022-09-27T15:14:22.757Z,15.86
2022-09-27T15:16:50.797Z,15.85
2022-09-27T15:19:22.471Z,15.85
2022-09-27T15:21:49.203Z,15.81
2022-09-27T15:24:34.474Z,15.81
2022-09-27T15:27:01.427Z,15.66
2022-09-27T15:29:28.756Z,15.61
2022-09-27T15:31:59.768Z,15.58
2022-09-27T15:34:27.715Z,15.52
2022-09-27T15:36:56.156Z,15.49
2022-09-27T15:39:29.548Z,15.34
2022-09-27T15:42:00.932Z,15.37
2022-09-27T15:44:39.852Z,15.35
2022-09-27T15:47:26.612Z,15.35
2022-09-27T15:49:53.508Z,15.35
2022-09-27T15:52:38.927Z,15.33
2022-09-27T15:55:05.780Z,15.32
2022-09-27T15:57:32.927Z,15.28
2022-09-27T16:00:00.835Z,15.28
2022-09-27T16:02:27.518Z,15.17
2022-09-27T16:04:54.247Z,15.11
2022-09-27T16:07:21.018Z,15.07
2022-09-27T16:09:49.582Z,15.02
2022-09-27T16:12:16.219Z,14.98
2022-09-27T16:14:42.921Z,14.94
2022-09-27T16:17:09.894Z,14.86
2022-09-27T16:19:36.500Z,14.82
2022-09-27T16:22:03.710Z,14.69
2022-09-27T16:24:31.484Z,14.65
2022-09-27T16:26:58.485Z,14.63
2022-09-27T16:29:25.216Z,14.57
2022-09-27T16:31:53.621Z,14.50
2022-09-27T16:34:20.381Z,14.46
2022-09-27T16:36:49.065Z,14.43
2022-09-27T16:39:15.829Z,14.37
2022-09-27T16:41:43.621Z,14.33
2022-09-27T16:44:11.600Z,14.30
2022-09-27T16:46:42.084Z,14.23
2022-09-27T16:49:31.997Z,14.16
2022-09-27T16:52:01.561Z,14.13
2022-09-27T16:54:29.320Z,14.09
2022-09-27T16:56:56.578Z,14.07
2022-09-27T16:59:24.918Z,14.06
2022-09-27T17:01:52.014Z,14.08
2022-09-27T17:04:18.769Z,14.05
2022-09-27T17:06:45.353Z,14.00
2022-09-27T17:09:12.142Z,13.97
2022-09-27T17:11:38.770Z,13.98
2022-09-27T17:14:05.401Z,13.97
2022-09-27T17:16:32.064Z,13.98
2022-09-27T17:18:58.803Z,13.97
2022-09-27T17:21:25.630Z,13.96
2022-09-27T17:23:52.274Z,13.97
2022-09-27T17:26:22.934Z,13.95
2022-09-27T17:28:50.094Z,13.94
2022-09-27T17:31:18.654Z,13.93
2022-09-27T17:33:46.845Z,13.92
2022-09-27T17:36:15.123Z,13.90
2022-09-27T17:38:41.916Z,13.91
2022-09-27T17:41:12.505Z,13.87
2022-09-27T17:43:43.735Z,13.86
2022-09-27T17:46:10.431Z,13.86
2022-09-27T17:48:56.401Z,13.82
2022-09-27T17:51:23.708Z,13.74
2022-09-27T17:53:50.615Z,13.73
2022-09-27T17:56:17.401Z,13.73
2022-09-27T17:58:47.950Z,13.70
2022-09-27T18:01:15.061Z,13.69
2022-09-27T18:03:41.921Z,13.66
2022-09-27T18:06:09.899Z,13.65
2022-09-27T18:08:36.658Z,13.62
2022-09-27T18:11:08.177Z,13.62
2022-09-27T18:13:40.776Z,13.63
2022-09-27T18:16:15.303Z,13.64
2022-09-27T18:18:42.924Z,13.66
2022-09-27T18:21:11.775Z,13.68
2022-09-27T18:23:38.611Z,13.68
2022-09-27T18:26:30.317Z,13.69
2022-09-27T18:29:02.112Z,13.69
2022-09-27T18:31:28.711Z,13.69
2022-09-27T18:33:55.487Z,13.68
2022-09-27T18:36:23.175Z,13.68
2022-09-27T18:38:57.714Z,13.63
2022-09-27T18:41:25.771Z,13.63
2022-09-27T18:43:57.158Z,13.65
2022-09-27T18:46:40.450Z,13.68
2022-09-27T18:49:08.379Z,13.69
2022-09-27T18:51:37.622Z,13.67
2022-09-27T18:54:05.823Z,13.65
2022-09-27T18:56:39.119Z,13.61
2022-09-27T18:59:08.716Z,13.58
2022-09-27T19:01:39.632Z,13.55
2022-09-27T19:04:07.418Z,13.54
2022-09-27T19:06:34.123Z,13.50
2022-09-27T19:09:00.963Z,13.47
2022-09-27T19:11:27.986Z,13.48
2022-09-27T19:13:55.514Z,13.41
2022-09-27T19:16:23.245Z,13.33
2022-09-27T19:18:50.388Z,13.35
2022-09-27T19:21:18.718Z,13.34
2022-09-27T19:23:45.370Z,13.33
2022-09-27T19:26:13.868Z,13.33
2022-09-27T19:28:41.210Z,13.32
2022-09-27T19:31:13.500Z,13.28
2022-09-27T19:33:40.371Z,13.26
2022-09-27T19:36:08.938Z,13.23
2022-09-27T19:38:36.587Z,13.19
2022-09-27T19:41:04.254Z,13.17
2022-09-27T19:43:31.208Z,13.18
2022-09-27T19:46:04.985Z,13.14
2022-09-27T19:48:31.926Z,13.11
2022-09-27T19:50:59.603Z,13.06
2022-09-27T19:53:32.003Z,12.98
2022-09-27T19:55:59.008Z,12.91
2022-09-27T19:58:26.326Z,12.87
2022-09-27T20:00:59.997Z,12.82
2022-09-27T20:03:26.807Z,12.77
2022-09-27T20:05:56.934Z,12.74
2022-09-27T20:08:23.838Z,12.71
2022-09-27T20:10:54.537Z,12.74
2022-09-27T20:13:23.784Z,12.72
2022-09-27T20:15:50.931Z,12.76
2022-09-27T20:18:17.800Z,12.75
2022-09-27T20:20:44.874Z,12.76
2022-09-27T20:23:11.615Z,12.76
2022-09-27T20:25:42.788Z,12.75
2022-09-27T20:28:09.956Z,12.75
2022-09-27T20:30:36.548Z,12.73
2022-09-27T20:33:21.841Z,12.71
2022-09-27T20:35:54.619Z,12.71
2022-09-27T20:38:23.629Z,12.74
2022-09-27T20:40:56.496Z,12.74
2022-09-27T20:43:26.109Z,12.76
2022-09-27T20:45:52.766Z,12.76
2022-09-27T20:48:19.690Z,12.76
2022-09-27T20:50:46.488Z,12.73
2022-09-27T20:53:13.130Z,12.71
2022-09-27T20:55:39.741Z,12.69
2022-09-27T20:58:06.271Z,12.66
2022-09-27T21:00:34.793Z,12.59
2022-09-27T21:03:01.393Z,12.53
2022-09-27T21:05:28.015Z,12.48
2022-09-27T21:07:55.379Z,12.42
2022-09-27T21:10:22.087Z,12.38
2022-09-27T21:12:49.075Z,12.30
2022-09-27T21:15:15.836Z,12.24
2022-09-27T21:17:42.617Z,12.17
2022-09-27T21:23:00.418Z,12.05
2022-09-27T21:25:27.079Z,12.00
2022-09-27T21:27:54.327Z,11.94
2022-09-27T21:30:22.630Z,11.89
2022-09-27T21:32:52.792Z,11.83
2022-09-27T21:35:19.452Z,11.80
2022-09-27T21:37:47.569Z,11.75
2022-09-27T21:40:14.884Z,11.71
2022-09-27T21:42:41.468Z,11.68
2022-09-27T21:47:59.504Z,11.55
2022-09-27T21:50:26.011Z,11.52
2022-09-27T21:52:56.164Z,11.50
2022-09-27T21:55:24.616Z,11.48
2022-09-27T21:57:51.266Z,11.47
2022-09-27T22:00:17.911Z,11.45
2022-09-27T22:02:44.475Z,11.40
2022-09-27T22:05:11.124Z,11.35
2022-09-27T22:07:37.735Z,11.40
2022-09-27T22:10:04.483Z,11.36
2022-09-27T22:12:32.200Z,11.26
2022-09-27T22:14:58.788Z,11.27
2022-09-27T22:17:25.420Z,11.24
2022-09-27T22:19:52.040Z,11.21
2022-09-27T22:22:18.729Z,11.17
2022-09-27T22:24:45.560Z,11.17
2022-09-27T22:27:12.182Z,11.14
2022-09-27T22:29:38.864Z,11.12
2022-09-27T22:32:05.544Z,11.09
2022-09-27T22:34:32.224Z,11.07
2022-09-27T22:37:00.831Z,11.06
2022-09-27T22:39:27.782Z,11.04
2022-09-27T22:41:54.486Z,11.01
2022-09-27T22:44:22.503Z,11.02
2022-09-27T22:46:49.231Z,11.01
2022-09-27T22:49:15.934Z,10.99
2022-09-27T22:51:42.770Z,10.99
2022-09-27T22:54:09.307Z,10.94
2022-09-27T22:56:35.910Z,10.89
2022-09-27T22:59:02.832Z,10.86
2022-09-27T23:01:29.740Z,10.83
2022-09-27T23:03:57.175Z,10.81
2022-09-27T23:06:24.125Z,10.77
2022-09-27T23:08:51.612Z,10.74
2022-09-27T23:11:19.659Z,10.71
2022-09-27T23:13:46.835Z,10.68
2022-09-27T23:16:15.151Z,10.66
2022-09-27T23:18:42.467Z,10.66
2022-09-27T23:21:10.324Z,10.62
2022-09-27T23:23:38.722Z,10.63
2022-09-27T23:26:06.012Z,10.59
2022-09-27T23:28:32.935Z,10.56
2022-09-27T23:31:10.784Z,10.55
2022-09-27T23:33:38.678Z,10.56
2022-09-27T23:36:07.646Z,10.55
2022-09-27T23:38:34.635Z,10.54
2022-09-27T23:41:01.395Z,10.54
2022-09-27T23:43:28.139Z,10.57
2022-09-27T23:45:57.215Z,10.56
2022-09-27T23:48:27.830Z,10.61
2022-09-27T23:50:54.519Z,10.65
2022-09-27T23:53:21.541Z,10.70
2022-09-27T23:55:51.766Z,10.73
2022-09-27T23:58:20.040Z,10.77
